sensor_id;sensor_type;location;lat;lon;timestamp;P1;durP1;ratioP1;P2;durP2;ratioP2
665;SDS011;315;48.738;9.126;2023-11-21T00:02:13;6.90;;;3.70;;
665;SDS011;315;48.738;9.126;2023-11-21T00:04:38;4.67;;;4.27;;
665;SDS011;315;48.738;9.126;2023-11-21T00:07:04;6.10;;;3.87;;
665;SDS011;315;48.738;9.126;2023-11-21T00:09:30;8.97;;;3.87;;
665;SDS011;315;48.738;9.126;2023-11-21T00:11:56;5.80;;;3.47;;
665;SDS011;315;48.738;9.126;2023-11-21T00:14:24;4.70;;;3.23;;
665;SDS011;315;48.738;9.126;2023-11-21T00:16:49;10.20;;;3.90;;
665;SDS011;315;48.738;9.126;2023-11-21T00:19:15;9.93;;;4.43;;
665;SDS011;315;48.738;9.126;2023-11-21T00:21:41;10.77;;;3.97;;
665;SDS011;315;48.738;9.126;2023-11-21T00:24:09;3.53;;;2.80;;
665;SDS011;315;48.738;9.126;2023-11-21T00:26:34;10.03;;;3.37;;
665;SDS011;315;48.738;9.126;2023-11-21T00:29:02;10.60;;;3.97;;
665;SDS011;315;48.738;9.126;2023-11-21T00:31:28;10.10;;;3.07;;
665;SDS011;315;48.738;9.126;2023-11-21T00:33:55;10.50;;;5.27;;
665;SDS011;315;48.738;9.126;2023-11-21T00:36:21;4.67;;;3.47;;
665;SDS011;315;48.738;9.126;2023-11-21T00:38:46;6.27;;;4.17;;
665;SDS011;315;48.738;9.126;2023-11-21T00:41:13;5.87;;;3.40;;
665;SDS011;315;48.738;9.126;2023-11-21T00:43:38;5.93;;;2.93;;
665;SDS011;315;48.738;9.126;2023-11-21T00:46:04;6.73;;;3.27;;
665;SDS011;315;48.738;9.126;2023-11-21T00:48:32;4.37;;;3.13;;
665;SDS011;315;48.738;9.126;2023-11-21T00:50:58;4.87;;;2.80;;
665;SDS011;315;48.738;9.126;2023-11-21T00:53:23;4.77;;;2.87;;
665;SDS011;315;48.738;9.126;2023-11-21T00:55:49;9.63;;;3.50;;
665;SDS011;315;48.738;9.126;2023-11-21T00:58:14;6.43;;;2.70;;
665;SDS011;315;48.738;9.126;2023-11-21T01:00:40;5.87;;;3.40;;
665;SDS011;315;48.738;9.126;2023-11-21T01:03:06;3.40;;;2.60;;
665;SDS011;315;48.738;9.126;2023-11-21T01:05:32;5.40;;;2.70;;
665;SDS011;315;48.738;9.126;2023-11-21T01:07:59;3.80;;;2.90;;
665;SDS011;315;48.738;9.126;2023-11-21T01:10:25;8.50;;;2.80;;
665;SDS011;315;48.738;9.126;2023-11-21T01:12:50;2.73;;;2.53;;
665;SDS011;315;48.738;9.126;2023-11-21T01:15:16;6.20;;;2.70;;
665;SDS011;315;48.738;9.126;2023-11-21T01:17:41;9.27;;;2.60;;
665;SDS011;315;48.738;9.126;2023-11-21T01:20:07;6.73;;;2.90;;
665;SDS011;315;48.738;9.126;2023-11-21T01:22:36;6.90;;;4.67;;
665;SDS011;315;48.738;9.126;2023-11-21T01:25:02;5.80;;;3.00;;
665;SDS011;315;48.738;9.126;2023-11-21T01:27:31;9.10;;;2.70;;
665;SDS011;315;48.738;9.126;2023-11-21T01:29:57;4.47;;;2.40;;
665;SDS011;315;48.738;9.126;2023-11-21T01:32:22;7.60;;;2.40;;
665;SDS011;315;48.738;9.126;2023-11-21T01:34:49;3.50;;;2.37;;
665;SDS011;315;48.738;9.126;2023-11-21T01:37:15;3.00;;;2.20;;
665;SDS011;315;48.738;9.126;2023-11-21T01:39:42;8.87;;;3.30;;
665;SDS011;315;48.738;9.126;2023-11-21T01:42:10;4.50;;;2.33;;
665;SDS011;315;48.738;9.126;2023-11-21T01:44:36;3.60;;;2.10;;
665;SDS011;315;48.738;9.126;2023-11-21T01:47:01;7.27;;;2.93;;
665;SDS011;315;48.738;9.126;2023-11-21T01:49:30;4.00;;;2.00;;
665;SDS011;315;48.738;9.126;2023-11-21T01:51:58;4.80;;;2.33;;
665;SDS011;315;48.738;9.126;2023-11-21T01:54:24;3.40;;;2.10;;
665;SDS011;315;48.738;9.126;2023-11-21T01:56:50;5.93;;;2.43;;
665;SDS011;315;48.738;9.126;2023-11-21T01:59:20;2.23;;;1.90;;
665;SDS011;315;48.738;9.126;2023-11-21T02:01:48;2.33;;;1.93;;
665;SDS011;315;48.738;9.126;2023-11-21T02:04:15;3.20;;;2.13;;
665;SDS011;315;48.738;9.126;2023-11-21T02:06:41;3.00;;;2.20;;
665;SDS011;315;48.738;9.126;2023-11-21T02:09:06;5.97;;;2.20;;
665;SDS011;315;48.738;9.126;2023-11-21T02:11:33;4.73;;;2.30;;
665;SDS011;315;48.738;9.126;2023-11-21T02:14:00;2.90;;;2.60;;
665;SDS011;315;48.738;9.126;2023-11-21T02:16:25;3.13;;;1.90;;
665;SDS011;315;48.738;9.126;2023-11-21T02:18:52;3.10;;;2.23;;
665;SDS011;315;48.738;9.126;2023-11-21T02:21:18;4.63;;;2.20;;
665;SDS011;315;48.738;9.126;2023-11-21T02:23:44;4.93;;;2.07;;
665;SDS011;315;48.738;9.126;2023-11-21T02:26:11;6.63;;;3.10;;
665;SDS011;315;48.738;9.126;2023-11-21T02:28:38;3.10;;;2.00;;
665;SDS011;315;48.738;9.126;2023-11-21T02:31:05;1.90;;;1.80;;
665;SDS011;315;48.738;9.126;2023-11-21T02:33:32;4.50;;;3.00;;
665;SDS011;315;48.738;9.126;2023-11-21T02:35:59;4.97;;;2.13;;
665;SDS011;315;48.738;9.126;2023-11-21T02:38:27;2.60;;;1.70;;
665;SDS011;315;48.738;9.126;2023-11-21T02:40:53;2.70;;;1.40;;
665;SDS011;315;48.738;9.126;2023-11-21T02:43:19;5.00;;;3.67;;
665;SDS011;315;48.738;9.126;2023-11-21T02:45:44;1.70;;;1.60;;
665;SDS011;315;48.738;9.126;2023-11-21T02:48:10;5.80;;;1.80;;
665;SDS011;315;48.738;9.126;2023-11-21T02:50:35;3.00;;;1.50;;
665;SDS011;315;48.738;9.126;2023-11-21T02:53:02;2.77;;;1.87;;
665;SDS011;315;48.738;9.126;2023-11-21T02:55:29;2.13;;;1.87;;
665;SDS011;315;48.738;9.126;2023-11-21T02:57:55;2.27;;;1.50;;
665;SDS011;315;48.738;9.126;2023-11-21T03:00:24;2.20;;;1.63;;
665;SDS011;315;48.738;9.126;2023-11-21T03:02:50;2.80;;;1.80;;
665;SDS011;315;48.738;9.126;2023-11-21T03:05:15;2.50;;;1.43;;
665;SDS011;315;48.738;9.126;2023-11-21T03:07:41;2.77;;;1.50;;
665;SDS011;315;48.738;9.126;2023-11-21T03:10:07;4.40;;;3.80;;
665;SDS011;315;48.738;9.126;2023-11-21T03:12:39;1.73;;;1.47;;
665;SDS011;315;48.738;9.126;2023-11-21T03:15:06;4.20;;;2.30;;
665;SDS011;315;48.738;9.126;2023-11-21T03:17:32;2.37;;;1.60;;
665;SDS011;315;48.738;9.126;2023-11-21T03:20:01;4.53;;;1.53;;
665;SDS011;315;48.738;9.126;2023-11-21T03:22:27;1.80;;;1.70;;
665;SDS011;315;48.738;9.126;2023-11-21T03:24:53;6.13;;;1.53;;
665;SDS011;315;48.738;9.126;2023-11-21T03:27:18;1.43;;;1.33;;
665;SDS011;315;48.738;9.126;2023-11-21T03:29:44;2.60;;;1.47;;
665;SDS011;315;48.738;9.126;2023-11-21T03:32:11;3.67;;;2.07;;
665;SDS011;315;48.738;9.126;2023-11-21T03:34:52;2.00;;;1.70;;
665;SDS011;315;48.738;9.126;2023-11-21T03:37:19;1.90;;;1.40;;
665;SDS011;315;48.738;9.126;2023-11-21T03:39:45;4.10;;;1.30;;
665;SDS011;315;48.738;9.126;2023-11-21T03:42:11;2.20;;;1.33;;
665;SDS011;315;48.738;9.126;2023-11-21T03:44:37;2.07;;;1.63;;
665;SDS011;315;48.738;9.126;2023-11-21T03:47:02;1.53;;;1.00;;
665;SDS011;315;48.738;9.126;2023-11-21T03:49:28;5.30;;;3.27;;
665;SDS011;315;48.738;9.126;2023-11-21T03:51:54;3.37;;;2.00;;
665;SDS011;315;48.738;9.126;2023-11-21T03:54:20;4.87;;;2.00;;
665;SDS011;315;48.738;9.126;2023-11-21T03:56:46;3.77;;;1.37;;
665;SDS011;315;48.738;9.126;2023-11-21T03:59:12;3.03;;;1.20;;
665;SDS011;315;48.738;9.126;2023-11-21T04:01:37;2.03;;;1.30;;
665;SDS011;315;48.738;9.126;2023-11-21T04:04:03;3.37;;;1.07;;
665;SDS011;315;48.738;9.126;2023-11-21T04:06:29;1.93;;;1.50;;
665;SDS011;315;48.738;9.126;2023-11-21T04:08:54;1.60;;;1.10;;
665;SDS011;315;48.738;9.126;2023-11-21T04:11:20;4.60;;;1.50;;
665;SDS011;315;48.738;9.126;2023-11-21T04:13:45;6.00;;;1.43;;
665;SDS011;315;48.738;9.126;2023-11-21T04:16:12;1.73;;;1.30;;
665;SDS011;315;48.738;9.126;2023-11-21T04:18:38;2.60;;;1.00;;
665;SDS011;315;48.738;9.126;2023-11-21T04:21:04;2.67;;;1.23;;
665;SDS011;315;48.738;9.126;2023-11-21T04:23:30;7.43;;;3.40;;
665;SDS011;315;48.738;9.126;2023-11-21T04:26:00;2.20;;;1.27;;
665;SDS011;315;48.738;9.126;2023-11-21T04:28:27;1.70;;;0.90;;
665;SDS011;315;48.738;9.126;2023-11-21T04:30:53;2.93;;;1.27;;
665;SDS011;315;48.738;9.126;2023-11-21T04:33:18;2.17;;;1.03;;
665;SDS011;315;48.738;9.126;2023-11-21T04:35:44;2.27;;;1.73;;
665;SDS011;315;48.738;9.126;2023-11-21T04:38:09;1.70;;;1.20;;
665;SDS011;315;48.738;9.126;2023-11-21T04:40:35;4.70;;;1.63;;
665;SDS011;315;48.738;9.126;2023-11-21T04:43:00;1.80;;;1.40;;
665;SDS011;315;48.738;9.126;2023-11-21T04:45:26;2.10;;;1.00;;
665;SDS011;315;48.738;9.126;2023-11-21T04:47:52;1.20;;;1.10;;
665;SDS011;315;48.738;9.126;2023-11-21T04:50:18;0.90;;;0.90;;
665;SDS011;315;48.738;9.126;2023-11-21T04:52:44;1.73;;;1.43;;
665;SDS011;315;48.738;9.126;2023-11-21T04:55:09;2.10;;;1.27;;
665;SDS011;315;48.738;9.126;2023-11-21T04:57:38;0.93;;;0.93;;
665;SDS011;315;48.738;9.126;2023-11-21T05:00:06;1.47;;;1.27;;
665;SDS011;315;48.738;9.126;2023-11-21T05:02:32;1.50;;;1.00;;
665;SDS011;315;48.738;9.126;2023-11-21T05:05:01;1.33;;;1.23;;
665;SDS011;315;48.738;9.126;2023-11-21T05:07:27;3.03;;;1.50;;
665;SDS011;315;48.738;9.126;2023-11-21T05:09:55;2.00;;;1.17;;
665;SDS011;315;48.738;9.126;2023-11-21T05:12:23;1.27;;;0.97;;
665;SDS011;315;48.738;9.126;2023-11-21T05:14:49;2.13;;;1.17;;
665;SDS011;315;48.738;9.126;2023-11-21T05:17:15;1.30;;;0.97;;
665;SDS011;315;48.738;9.126;2023-11-21T05:19:41;1.23;;;1.13;;
665;SDS011;315;48.738;9.126;2023-11-21T05:22:07;1.53;;;0.90;;
665;SDS011;315;48.738;9.126;2023-11-21T05:24:33;1.50;;;1.37;;
665;SDS011;315;48.738;9.126;2023-11-21T05:26:59;0.93;;;0.93;;
665;SDS011;315;48.738;9.126;2023-11-21T05:29:25;2.40;;;1.10;;
665;SDS011;315;48.738;9.126;2023-11-21T05:31:51;1.80;;;0.90;;
665;SDS011;315;48.738;9.126;2023-11-21T05:34:18;1.30;;;1.20;;
665;SDS011;315;48.738;9.126;2023-11-21T05:36:43;2.17;;;1.67;;
665;SDS011;315;48.738;9.126;2023-11-21T05:39:10;3.23;;;1.30;;
665;SDS011;315;48.738;9.126;2023-11-21T05:41:36;3.50;;;1.23;;
665;SDS011;315;48.738;9.126;2023-11-21T05:44:02;2.30;;;1.43;;
665;SDS011;315;48.738;9.126;2023-11-21T05:46:27;1.77;;;1.10;;
665;SDS011;315;48.738;9.126;2023-11-21T05:48:53;1.83;;;1.37;;
665;SDS011;315;48.738;9.126;2023-11-21T05:51:18;2.77;;;1.87;;
665;SDS011;315;48.738;9.126;2023-11-21T05:53:44;3.07;;;2.23;;
665;SDS011;315;48.738;9.126;2023-11-21T05:56:09;4.03;;;2.40;;
665;SDS011;315;48.738;9.126;2023-11-21T05:58:35;2.40;;;2.10;;
665;SDS011;315;48.738;9.126;2023-11-21T06:01:00;1.47;;;1.30;;
665;SDS011;315;48.738;9.126;2023-11-21T06:03:28;1.63;;;1.40;;
665;SDS011;315;48.738;9.126;2023-11-21T06:05:53;1.90;;;1.20;;
665;SDS011;315;48.738;9.126;2023-11-21T06:08:19;2.03;;;1.30;;
665;SDS011;315;48.738;9.126;2023-11-21T06:10:44;2.07;;;1.40;;
665;SDS011;315;48.738;9.126;2023-11-21T06:13:10;1.03;;;1.00;;
665;SDS011;315;48.738;9.126;2023-11-21T06:15:35;1.80;;;1.57;;
665;SDS011;315;48.738;9.126;2023-11-21T06:18:01;2.40;;;1.63;;
665;SDS011;315;48.738;9.126;2023-11-21T06:20:27;2.70;;;1.93;;
665;SDS011;315;48.738;9.126;2023-11-21T06:22:52;1.47;;;1.37;;
665;SDS011;315;48.738;9.126;2023-11-21T06:25:19;1.37;;;1.27;;
665;SDS011;315;48.738;9.126;2023-11-21T06:27:47;2.37;;;1.60;;
665;SDS011;315;48.738;9.126;2023-11-21T06:30:13;4.43;;;1.60;;
665;SDS011;315;48.738;9.126;2023-11-21T06:32:40;3.60;;;1.33;;
665;SDS011;315;48.738;9.126;2023-11-21T06:35:06;3.67;;;1.70;;
665;SDS011;315;48.738;9.126;2023-11-21T06:37:36;3.83;;;1.70;;
665;SDS011;315;48.738;9.126;2023-11-21T06:40:03;2.27;;;2.07;;
665;SDS011;315;48.738;9.126;2023-11-21T06:42:29;3.20;;;2.60;;
665;SDS011;315;48.738;9.126;2023-11-21T06:44:55;4.57;;;2.47;;
665;SDS011;315;48.738;9.126;2023-11-21T06:47:24;3.30;;;2.53;;
665;SDS011;315;48.738;9.126;2023-11-21T06:49:50;2.73;;;2.43;;
665;SDS011;315;48.738;9.126;2023-11-21T06:52:16;3.27;;;2.97;;
665;SDS011;315;48.738;9.126;2023-11-21T06:54:43;4.47;;;2.67;;
665;SDS011;315;48.738;9.126;2023-11-21T06:57:08;3.30;;;3.00;;
665;SDS011;315;48.738;9.126;2023-11-21T06:59:34;3.70;;;3.40;;
665;SDS011;315;48.738;9.126;2023-11-21T07:02:00;5.47;;;2.80;;
665;SDS011;315;48.738;9.126;2023-11-21T07:04:25;3.33;;;3.03;;
665;SDS011;315;48.738;9.126;2023-11-21T07:06:51;4.20;;;1.77;;
665;SDS011;315;48.738;9.126;2023-11-21T07:09:18;3.33;;;3.00;;
665;SDS011;315;48.738;9.126;2023-11-21T07:11:47;8.00;;;2.77;;
665;SDS011;315;48.738;9.126;2023-11-21T07:14:13;4.07;;;2.20;;
665;SDS011;315;48.738;9.126;2023-11-21T07:16:39;1.80;;;1.70;;
665;SDS011;315;48.738;9.126;2023-11-21T07:19:05;3.70;;;2.73;;
665;SDS011;315;48.738;9.126;2023-11-21T07:21:35;3.20;;;2.80;;
665;SDS011;315;48.738;9.126;2023-11-21T07:24:01;2.90;;;2.03;;
665;SDS011;315;48.738;9.126;2023-11-21T07:26:28;5.33;;;2.30;;
665;SDS011;315;48.738;9.126;2023-11-21T07:28:54;4.20;;;2.47;;
665;SDS011;315;48.738;9.126;2023-11-21T07:31:20;3.30;;;2.63;;
665;SDS011;315;48.738;9.126;2023-11-21T07:33:46;3.73;;;2.83;;
665;SDS011;315;48.738;9.126;2023-11-21T07:36:13;4.97;;;3.73;;
665;SDS011;315;48.738;9.126;2023-11-21T07:38:39;4.43;;;3.00;;
665;SDS011;315;48.738;9.126;2023-11-21T07:41:05;2.33;;;2.10;;
665;SDS011;315;48.738;9.126;2023-11-21T07:43:33;1.90;;;1.80;;
665;SDS011;315;48.738;9.126;2023-11-21T07:46:02;3.00;;;1.93;;
665;SDS011;315;48.738;9.126;2023-11-21T07:48:28;2.40;;;2.17;;
665;SDS011;315;48.738;9.126;2023-11-21T07:50:54;2.60;;;1.87;;
665;SDS011;315;48.738;9.126;2023-11-21T07:53:20;13.27;;;9.93;;
665;SDS011;315;48.738;9.126;2023-11-21T07:55:46;5.30;;;4.03;;
665;SDS011;315;48.738;9.126;2023-11-21T07:58:12;3.93;;;3.50;;
665;SDS011;315;48.738;9.126;2023-11-21T08:00:38;5.80;;;5.13;;
665;SDS011;315;48.738;9.126;2023-11-21T08:03:04;5.03;;;3.20;;
665;SDS011;315;48.738;9.126;2023-11-21T08:05:30;3.07;;;2.80;;
665;SDS011;315;48.738;9.126;2023-11-21T08:07:56;3.47;;;2.87;;
665;SDS011;315;48.738;9.126;2023-11-21T08:10:22;3.70;;;3.07;;
665;SDS011;315;48.738;9.126;2023-11-21T08:12:47;5.53;;;3.00;;
665;SDS011;315;48.738;9.126;2023-11-21T08:15:16;7.30;;;4.10;;
665;SDS011;315;48.738;9.126;2023-11-21T08:17:41;3.50;;;3.20;;
665;SDS011;315;48.738;9.126;2023-11-21T08:20:07;3.47;;;2.93;;
665;SDS011;315;48.738;9.126;2023-11-21T08:22:35;2.80;;;2.60;;
665;SDS011;315;48.738;9.126;2023-11-21T08:25:01;3.27;;;3.07;;
665;SDS011;315;48.738;9.126;2023-11-21T08:27:29;3.67;;;3.37;;
665;SDS011;315;48.738;9.126;2023-11-21T08:29:54;5.10;;;4.33;;
665;SDS011;315;48.738;9.126;2023-11-21T08:32:21;4.00;;;3.37;;
665;SDS011;315;48.738;9.126;2023-11-21T08:34:47;3.27;;;2.80;;
665;SDS011;315;48.738;9.126;2023-11-21T08:37:15;6.20;;;3.03;;
665;SDS011;315;48.738;9.126;2023-11-21T08:39:41;3.00;;;2.70;;
665;SDS011;315;48.738;9.126;2023-11-21T08:42:08;3.57;;;2.73;;
665;SDS011;315;48.738;9.126;2023-11-21T08:44:34;3.67;;;2.83;;
665;SDS011;315;48.738;9.126;2023-11-21T08:46:59;5.63;;;3.60;;
665;SDS011;315;48.738;9.126;2023-11-21T08:49:25;5.57;;;3.30;;
665;SDS011;315;48.738;9.126;2023-11-21T08:51:54;5.07;;;3.60;;
665;SDS011;315;48.738;9.126;2023-11-21T08:54:24;4.07;;;3.50;;
665;SDS011;315;48.738;9.126;2023-11-21T08:56:50;3.60;;;3.30;;
665;SDS011;315;48.738;9.126;2023-11-21T08:59:19;2.30;;;2.03;;
665;SDS011;315;48.738;9.126;2023-11-21T09:01:45;2.50;;;1.70;;
665;SDS011;315;48.738;9.126;2023-11-21T09:04:11;5.27;;;1.80;;
665;SDS011;315;48.738;9.126;2023-11-21T09:06:37;2.77;;;1.87;;
665;SDS011;315;48.738;9.126;2023-11-21T09:09:04;1.80;;;1.70;;
665;SDS011;315;48.738;9.126;2023-11-21T09:11:31;1.53;;;1.43;;
665;SDS011;315;48.738;9.126;2023-11-21T09:13:59;1.93;;;1.83;;
665;SDS011;315;48.738;9.126;2023-11-21T09:16:25;2.23;;;2.00;;
665;SDS011;315;48.738;9.126;2023-11-21T09:18:51;1.80;;;1.70;;
665;SDS011;315;48.738;9.126;2023-11-21T09:21:16;1.60;;;1.50;;
665;SDS011;315;48.738;9.126;2023-11-21T09:23:43;2.97;;;1.70;;
665;SDS011;315;48.738;9.126;2023-11-21T09:26:09;2.23;;;2.03;;
665;SDS011;315;48.738;9.126;2023-11-21T09:28:35;1.60;;;1.50;;
665;SDS011;315;48.738;9.126;2023-11-21T09:31:02;1.63;;;1.53;;
665;SDS011;315;48.738;9.126;2023-11-21T09:33:29;1.90;;;1.80;;
665;SDS011;315;48.738;9.126;2023-11-21T09:35:56;4.43;;;2.27;;
665;SDS011;315;48.738;9.126;2023-11-21T09:38:22;1.80;;;1.70;;
665;SDS011;315;48.738;9.126;2023-11-21T09:40:47;1.73;;;1.63;;
665;SDS011;315;48.738;9.126;2023-11-21T09:43:16;1.70;;;1.60;;
665;SDS011;315;48.738;9.126;2023-11-21T09:45:44;1.40;;;1.30;;
665;SDS011;315;48.738;9.126;2023-11-21T09:48:19;1.37;;;1.20;;
665;SDS011;315;48.738;9.126;2023-11-21T09:50:45;2.00;;;1.30;;
665;SDS011;315;48.738;9.126;2023-11-21T09:53:13;1.00;;;1.00;;
665;SDS011;315;48.738;9.126;2023-11-21T09:55:43;2.50;;;1.50;;
665;SDS011;315;48.738;9.126;2023-11-21T09:58:09;2.80;;;2.17;;
665;SDS011;315;48.738;9.126;2023-11-21T10:00:37;2.20;;;1.90;;
665;SDS011;315;48.738;9.126;2023-11-21T10:03:05;2.10;;;1.87;;
665;SDS011;315;48.738;9.126;2023-11-21T10:05:31;1.77;;;1.40;;
665;SDS011;315;48.738;9.126;2023-11-21T10:07:59;1.63;;;1.53;;
665;SDS011;315;48.738;9.126;2023-11-21T10:10:25;1.80;;;1.60;;
665;SDS011;315;48.738;9.126;2023-11-21T10:12:55;4.77;;;2.00;;
665;SDS011;315;48.738;9.126;2023-11-21T10:15:21;2.17;;;1.60;;
665;SDS011;315;48.738;9.126;2023-11-21T10:17:51;2.37;;;1.97;;
665;SDS011;315;48.738;9.126;2023-11-21T10:20:18;6.13;;;3.30;;
665;SDS011;315;48.738;9.126;2023-11-21T10:22:45;2.67;;;1.93;;
665;SDS011;315;48.738;9.126;2023-11-21T10:25:10;2.50;;;1.70;;
665;SDS011;315;48.738;9.126;2023-11-21T10:27:39;2.00;;;1.50;;
665;SDS011;315;48.738;9.126;2023-11-21T10:30:05;5.20;;;2.00;;
665;SDS011;315;48.738;9.126;2023-11-21T10:32:33;2.00;;;1.80;;
665;SDS011;315;48.738;9.126;2023-11-21T10:34:58;1.80;;;1.70;;
665;SDS011;315;48.738;9.126;2023-11-21T10:37:34;2.23;;;1.93;;
665;SDS011;315;48.738;9.126;2023-11-21T10:40:00;2.83;;;2.63;;
665;SDS011;315;48.738;9.126;2023-11-21T10:42:25;3.03;;;1.80;;
665;SDS011;315;48.738;9.126;2023-11-21T10:44:52;2.63;;;2.30;;
665;SDS011;315;48.738;9.126;2023-11-21T10:47:18;3.80;;;2.00;;
665;SDS011;315;48.738;9.126;2023-11-21T10:49:45;1.77;;;1.67;;
665;SDS011;315;48.738;9.126;2023-11-21T10:52:13;7.87;;;2.70;;
665;SDS011;315;48.738;9.126;2023-11-21T10:54:42;5.33;;;4.47;;
665;SDS011;315;48.738;9.126;2023-11-21T10:57:08;3.33;;;3.03;;
665;SDS011;315;48.738;9.126;2023-11-21T10:59:35;3.50;;;2.83;;
665;SDS011;315;48.738;9.126;2023-11-21T11:02:02;2.90;;;2.70;;
665;SDS011;315;48.738;9.126;2023-11-21T11:04:45;3.17;;;2.80;;
665;SDS011;315;48.738;9.126;2023-11-21T11:07:13;3.27;;;2.70;;
665;SDS011;315;48.738;9.126;2023-11-21T11:09:41;5.43;;;2.77;;
665;SDS011;315;48.738;9.126;2023-11-21T11:12:06;5.63;;;2.37;;
665;SDS011;315;48.738;9.126;2023-11-21T11:14:34;1.93;;;1.83;;
665;SDS011;315;48.738;9.126;2023-11-21T11:17:01;3.37;;;2.03;;
665;SDS011;315;48.738;9.126;2023-11-21T11:19:28;3.07;;;1.80;;
665;SDS011;315;48.738;9.126;2023-11-21T11:24:54;2.93;;;2.43;;
665;SDS011;315;48.738;9.126;2023-11-21T11:27:40;3.03;;;2.17;;
665;SDS011;315;48.738;9.126;2023-11-21T11:38:52;2.63;;;2.27;;
665;SDS011;315;48.738;9.126;2023-11-21T11:41:28;1.97;;;1.77;;
665;SDS011;315;48.738;9.126;2023-11-21T11:43:58;4.47;;;4.20;;
665;SDS011;315;48.738;9.126;2023-11-21T11:49:24;2.70;;;2.50;;
665;SDS011;315;48.738;9.126;2023-11-21T11:55:17;1.53;;;1.43;;
665;SDS011;315;48.738;9.126;2023-11-21T11:57:45;1.40;;;1.30;;
665;SDS011;315;48.738;9.126;2023-11-21T12:03:07;1.73;;;1.20;;
665;SDS011;315;48.738;9.126;2023-11-21T12:05:34;1.87;;;1.77;;
665;SDS011;315;48.738;9.126;2023-11-21T12:08:10;1.90;;;1.70;;
665;SDS011;315;48.738;9.126;2023-11-21T12:10:37;1.00;;;1.00;;
665;SDS011;315;48.738;9.126;2023-11-21T12:13:06;1.53;;;1.43;;
665;SDS011;315;48.738;9.126;2023-11-21T12:15:33;1.20;;;1.10;;
665;SDS011;315;48.738;9.126;2023-11-21T12:18:00;2.53;;;1.80;;
665;SDS011;315;48.738;9.126;2023-11-21T12:20:26;1.57;;;1.47;;
665;SDS011;315;48.738;9.126;2023-11-21T12:22:55;1.57;;;1.47;;
665;SDS011;315;48.738;9.126;2023-11-21T12:25:27;1.50;;;1.40;;
665;SDS011;315;48.738;9.126;2023-11-21T12:27:54;1.60;;;1.50;;
665;SDS011;315;48.738;9.126;2023-11-21T12:30:22;1.83;;;1.73;;
665;SDS011;315;48.738;9.126;2023-11-21T12:32:52;1.80;;;1.70;;
665;SDS011;315;48.738;9.126;2023-11-21T12:35:21;1.67;;;1.57;;
665;SDS011;315;48.738;9.126;2023-11-21T12:37:48;1.90;;;1.80;;
665;SDS011;315;48.738;9.126;2023-11-21T12:40:15;2.20;;;2.10;;
665;SDS011;315;48.738;9.126;2023-11-21T12:42:42;2.00;;;1.90;;
665;SDS011;315;48.738;9.126;2023-11-21T12:47:45;1.63;;;1.53;;
665;SDS011;315;48.738;9.126;2023-11-21T12:50:14;1.67;;;1.50;;
665;SDS011;315;48.738;9.126;2023-11-21T12:52:40;1.73;;;1.63;;
665;SDS011;315;48.738;9.126;2023-11-21T12:55:09;1.80;;;1.70;;
665;SDS011;315;48.738;9.126;2023-11-21T12:57:34;1.60;;;1.50;;
665;SDS011;315;48.738;9.126;2023-11-21T13:00:03;1.83;;;1.30;;
665;SDS011;315;48.738;9.126;2023-11-21T13:02:36;2.10;;;1.37;;
665;SDS011;315;48.738;9.126;2023-11-21T13:05:03;1.50;;;1.40;;
665;SDS011;315;48.738;9.126;2023-11-21T13:07:40;1.70;;;1.60;;
665;SDS011;315;48.738;9.126;2023-11-21T13:10:11;2.00;;;1.90;;
665;SDS011;315;48.738;9.126;2023-11-21T13:12:42;1.80;;;1.70;;
665;SDS011;315;48.738;9.126;2023-11-21T13:15:09;2.10;;;2.00;;
665;SDS011;315;48.738;9.126;2023-11-21T13:17:35;2.20;;;1.80;;
665;SDS011;315;48.738;9.126;2023-11-21T13:20:01;2.13;;;2.03;;
665;SDS011;315;48.738;9.126;2023-11-21T13:22:30;2.53;;;2.33;;
665;SDS011;315;48.738;9.126;2023-11-21T13:24:58;2.00;;;1.90;;
665;SDS011;315;48.738;9.126;2023-11-21T13:27:23;2.80;;;2.60;;
665;SDS011;315;48.738;9.126;2023-11-21T13:29:50;3.30;;;1.90;;
665;SDS011;315;48.738;9.126;2023-11-21T13:32:16;1.97;;;1.87;;
665;SDS011;315;48.738;9.126;2023-11-21T13:34:45;2.07;;;1.73;;
665;SDS011;315;48.738;9.126;2023-11-21T13:37:12;1.70;;;1.60;;
665;SDS011;315;48.738;9.126;2023-11-21T13:39:38;1.70;;;1.60;;
665;SDS011;315;48.738;9.126;2023-11-21T13:42:09;2.00;;;1.90;;
665;SDS011;315;48.738;9.126;2023-11-21T13:44:36;1.00;;;1.00;;
665;SDS011;315;48.738;9.126;2023-11-21T13:47:03;1.27;;;1.13;;
665;SDS011;315;48.738;9.126;2023-11-21T13:49:30;1.40;;;1.30;;
665;SDS011;315;48.738;9.126;2023-11-21T13:52:01;1.83;;;0.80;;
665;SDS011;315;48.738;9.126;2023-11-21T13:54:28;2.30;;;1.07;;
665;SDS011;315;48.738;9.126;2023-11-21T13:56:54;1.03;;;0.93;;
665;SDS011;315;48.738;9.126;2023-11-21T13:59:20;1.20;;;1.10;;
665;SDS011;315;48.738;9.126;2023-11-21T14:01:51;1.63;;;1.40;;
665;SDS011;315;48.738;9.126;2023-11-21T14:04:24;1.10;;;1.10;;
665;SDS011;315;48.738;9.126;2023-11-21T14:07:09;1.00;;;1.00;;
665;SDS011;315;48.738;9.126;2023-11-21T14:09:53;1.93;;;1.27;;
665;SDS011;315;48.738;9.126;2023-11-21T14:12:19;1.60;;;1.50;;
665;SDS011;315;48.738;9.126;2023-11-21T14:14:45;1.63;;;1.53;;
665;SDS011;315;48.738;9.126;2023-11-21T14:17:12;2.13;;;1.90;;
665;SDS011;315;48.738;9.126;2023-11-21T14:19:38;2.57;;;2.37;;
665;SDS011;315;48.738;9.126;2023-11-21T14:22:08;1.80;;;1.70;;
665;SDS011;315;48.738;9.126;2023-11-21T14:24:35;2.17;;;1.90;;
665;SDS011;315;48.738;9.126;2023-11-21T14:27:01;3.00;;;1.97;;
665;SDS011;315;48.738;9.126;2023-11-21T14:29:28;2.03;;;1.93;;
665;SDS011;315;48.738;9.126;2023-11-21T14:31:54;2.23;;;2.03;;
665;SDS011;315;48.738;9.126;2023-11-21T14:34:22;2.40;;;2.20;;
665;SDS011;315;48.738;9.126;2023-11-21T14:36:48;4.23;;;2.53;;
665;SDS011;315;48.738;9.126;2023-11-21T14:39:14;2.70;;;2.50;;
665;SDS011;315;48.738;9.126;2023-11-21T14:41:52;2.97;;;2.77;;
665;SDS011;315;48.738;9.126;2023-11-21T14:44:19;3.00;;;2.80;;
665;SDS011;315;48.738;9.126;2023-11-21T14:46:45;3.83;;;2.93;;
665;SDS011;315;48.738;9.126;2023-11-21T14:49:14;4.17;;;2.53;;
665;SDS011;315;48.738;9.126;2023-11-21T14:51:47;6.50;;;3.27;;
665;SDS011;315;48.738;9.126;2023-11-21T14:54:31;3.53;;;3.23;;
665;SDS011;315;48.738;9.126;2023-11-21T14:57:09;3.10;;;2.80;;
665;SDS011;315;48.738;9.126;2023-11-21T14:59:43;2.80;;;2.43;;
665;SDS011;315;48.738;9.126;2023-11-21T15:02:15;2.97;;;2.77;;
665;SDS011;315;48.738;9.126;2023-11-21T15:04:45;2.77;;;2.57;;
665;SDS011;315;48.738;9.126;2023-11-21T15:07:11;3.77;;;3.47;;
665;SDS011;315;48.738;9.126;2023-11-21T15:09:37;3.67;;;3.40;;
665;SDS011;315;48.738;9.126;2023-11-21T15:12:07;3.67;;;3.37;;
665;SDS011;315;48.738;9.126;2023-11-21T15:14:46;3.70;;;3.30;;
665;SDS011;315;48.738;9.126;2023-11-21T15:17:17;3.00;;;2.80;;
665;SDS011;315;48.738;9.126;2023-11-21T15:19:51;4.63;;;3.10;;
665;SDS011;315;48.738;9.126;2023-11-21T15:22:17;3.40;;;3.10;;
665;SDS011;315;48.738;9.126;2023-11-21T15:24:43;3.57;;;3.37;;
665;SDS011;315;48.738;9.126;2023-11-21T15:27:11;4.13;;;3.40;;
665;SDS011;315;48.738;9.126;2023-11-21T15:29:40;4.10;;;3.70;;
665;SDS011;315;48.738;9.126;2023-11-21T15:32:06;4.23;;;3.03;;
665;SDS011;315;48.738;9.126;2023-11-21T15:34:33;3.97;;;3.57;;
665;SDS011;315;48.738;9.126;2023-11-21T15:37:03;3.70;;;3.40;;
665;SDS011;315;48.738;9.126;2023-11-21T15:39:29;4.93;;;4.37;;
665;SDS011;315;48.738;9.126;2023-11-21T15:41:55;4.63;;;4.17;;
665;SDS011;315;48.738;9.126;2023-11-21T15:44:22;8.03;;;3.97;;
665;SDS011;315;48.738;9.126;2023-11-21T15:46:48;5.23;;;4.27;;
665;SDS011;315;48.738;9.126;2023-11-21T15:49:14;6.33;;;5.73;;
665;SDS011;315;48.738;9.126;2023-11-21T15:51:43;5.10;;;4.60;;
665;SDS011;315;48.738;9.126;2023-11-21T15:54:17;5.00;;;4.50;;
665;SDS011;315;48.738;9.126;2023-11-21T15:56:43;8.83;;;7.90;;
665;SDS011;315;48.738;9.126;2023-11-21T15:59:09;6.27;;;5.60;;
665;SDS011;315;48.738;9.126;2023-11-21T16:01:35;6.47;;;5.03;;
665;SDS011;315;48.738;9.126;2023-11-21T16:04:06;4.90;;;4.50;;
665;SDS011;315;48.738;9.126;2023-11-21T16:06:32;5.87;;;5.27;;
665;SDS011;315;48.738;9.126;2023-11-21T16:09:04;6.17;;;5.57;;